sensor_id;sensor_type;location;lat;lon;timestamp;temperature;humidity
41926;DHT22;27615;51.826;5.692;2022-07-29T00:01:48;18.90;65.90
41926;DHT22;27615;51.826;5.692;2022-07-29T00:04:13;18.90;65.90
41926;DHT22;27615;51.826;5.692;2022-07-29T00:06:39;18.90;66.00
41926;DHT22;27615;51.826;5.692;2022-07-29T00:09:05;18.90;66.00
41926;DHT22;27615;51.826;5.692;2022-07-29T00:11:32;18.90;66.00
41926;DHT22;27615;51.826;5.692;2022-07-29T00:13:58;18.90;66.10
41926;DHT22;27615;51.826;5.692;2022-07-29T00:16:23;18.90;66.20
41926;DHT22;27615;51.826;5.692;2022-07-29T00:18:49;18.90;66.40
41926;DHT22;27615;51.826;5.692;2022-07-29T00:21:14;18.80;66.60
41926;DHT22;27615;51.826;5.692;2022-07-29T00:23:40;18.80;66.80
41926;DHT22;27615;51.826;5.692;2022-07-29T00:26:06;18.80;66.90
41926;DHT22;27615;51.826;5.692;2022-07-29T00:28:31;18.80;67.00
41926;DHT22;27615;51.826;5.692;2022-07-29T00:30:57;18.80;67.20
41926;DHT22;27615;51.826;5.692;2022-07-29T00:33:23;18.80;67.30
41926;DHT22;27615;51.826;5.692;2022-07-29T00:35:49;18.80;67.30
41926;DHT22;27615;51.826;5.692;2022-07-29T00:38:16;18.70;67.40
41926;DHT22;27615;51.826;5.692;2022-07-29T00:40:43;18.80;67.50
41926;DHT22;27615;51.826;5.692;2022-07-29T00:43:09;18.70;67.40
41926;DHT22;27615;51.826;5.692;2022-07-29T00:45:35;18.70;67.50
41926;DHT22;27615;51.826;5.692;2022-07-29T00:48:02;18.70;67.50
41926;DHT22;27615;51.826;5.692;2022-07-29T00:50:30;18.70;67.70
41926;DHT22;27615;51.826;5.692;2022-07-29T00:52:56;18.70;67.90
41926;DHT22;27615;51.826;5.692;2022-07-29T00:55:22;18.70;67.90
41926;DHT22;27615;51.826;5.692;2022-07-29T00:57:47;18.70;67.90
41926;DHT22;27615;51.826;5.692;2022-07-29T01:00:21;18.70;68.00
41926;DHT22;27615;51.826;5.692;2022-07-29T01:02:48;18.70;68.00
41926;DHT22;27615;51.826;5.692;2022-07-29T01:05:16;18.70;68.10
41926;DHT22;27615;51.826;5.692;2022-07-29T01:07:42;18.70;68.10
41926;DHT22;27615;51.826;5.692;2022-07-29T01:10:10;18.70;68.10
41926;DHT22;27615;51.826;5.692;2022-07-29T01:12:38;18.70;68.10
41926;DHT22;27615;51.826;5.692;2022-07-29T01:15:06;18.60;68.10
41926;DHT22;27615;51.826;5.692;2022-07-29T01:18:00;18.70;68.30
41926;DHT22;27615;51.826;5.692;2022-07-29T01:20:30;18.60;68.30
41926;DHT22;27615;51.826;5.692;2022-07-29T01:31:10;18.60;69.30
41926;DHT22;27615;51.826;5.692;2022-07-29T01:33:41;18.60;69.60
41926;DHT22;27615;51.826;5.692;2022-07-29T01:36:19;18.50;69.60
41926;DHT22;27615;51.826;5.692;2022-07-29T01:39:14;18.50;69.90
41926;DHT22;27615;51.826;5.692;2022-07-29T01:41:52;18.50;70.00
41926;DHT22;27615;51.826;5.692;2022-07-29T01:44:30;18.40;70.50
41926;DHT22;27615;51.826;5.692;2022-07-29T01:46:58;18.40;71.00
41926;DHT22;27615;51.826;5.692;2022-07-29T01:49:28;18.40;71.50
41926;DHT22;27615;51.826;5.692;2022-07-29T01:52:02;18.30;72.30
41926;DHT22;27615;51.826;5.692;2022-07-29T01:54:41;18.30;72.40
41926;DHT22;27615;51.826;5.692;2022-07-29T01:57:09;18.30;72.80
41926;DHT22;27615;51.826;5.692;2022-07-29T01:59:37;18.20;73.00
41926;DHT22;27615;51.826;5.692;2022-07-29T02:02:04;18.20;73.40
41926;DHT22;27615;51.826;5.692;2022-07-29T02:04:32;18.20;73.60
41926;DHT22;27615;51.826;5.692;2022-07-29T02:07:02;18.10;74.30
41926;DHT22;27615;51.826;5.692;2022-07-29T02:09:30;18.10;74.90
41926;DHT22;27615;51.826;5.692;2022-07-29T02:11:57;18.10;75.40
41926;DHT22;27615;51.826;5.692;2022-07-29T02:14:24;18.00;75.90
41926;DHT22;27615;51.826;5.692;2022-07-29T02:16:53;18.00;76.40
41926;DHT22;27615;51.826;5.692;2022-07-29T02:19:22;18.00;77.00
41926;DHT22;27615;51.826;5.692;2022-07-29T02:21:51;18.00;77.40
41926;DHT22;27615;51.826;5.692;2022-07-29T02:24:17;17.90;77.80
41926;DHT22;27615;51.826;5.692;2022-07-29T02:26:44;17.90;78.00
41926;DHT22;27615;51.826;5.692;2022-07-29T02:29:12;17.90;78.10
41926;DHT22;27615;51.826;5.692;2022-07-29T02:31:39;17.80;78.40
41926;DHT22;27615;51.826;5.692;2022-07-29T02:34:07;17.80;79.20
41926;DHT22;27615;51.826;5.692;2022-07-29T02:36:34;17.70;79.50
41926;DHT22;27615;51.826;5.692;2022-07-29T02:39:00;17.60;79.80
41926;DHT22;27615;51.826;5.692;2022-07-29T02:41:42;17.60;80.00
41926;DHT22;27615;51.826;5.692;2022-07-29T02:44:14;17.60;81.20
41926;DHT22;27615;51.826;5.692;2022-07-29T02:52:02;17.40;83.40
41926;DHT22;27615;51.826;5.692;2022-07-29T02:54:40;17.30;83.90
41926;DHT22;27615;51.826;5.692;2022-07-29T02:57:14;17.20;85.10
41926;DHT22;27615;51.826;5.692;2022-07-29T02:59:51;17.10;85.90
41926;DHT22;27615;51.826;5.692;2022-07-29T03:02:18;17.00;86.00
41926;DHT22;27615;51.826;5.692;2022-07-29T03:04:44;16.90;86.20
41926;DHT22;27615;51.826;5.692;2022-07-29T03:07:13;16.90;86.30
41926;DHT22;27615;51.826;5.692;2022-07-29T03:09:41;16.90;86.10
41926;DHT22;27615;51.826;5.692;2022-07-29T03:12:08;16.90;86.20
41926;DHT22;27615;51.826;5.692;2022-07-29T03:14:34;16.80;86.60
41926;DHT22;27615;51.826;5.692;2022-07-29T03:17:00;16.80;87.30
41926;DHT22;27615;51.826;5.692;2022-07-29T03:19:26;16.70;87.70
41926;DHT22;27615;51.826;5.692;2022-07-29T03:21:52;16.70;87.90
41926;DHT22;27615;51.826;5.692;2022-07-29T03:24:32;16.70;88.00
41926;DHT22;27615;51.826;5.692;2022-07-29T03:26:58;16.70;88.30
41926;DHT22;27615;51.826;5.692;2022-07-29T03:29:24;16.60;87.70
41926;DHT22;27615;51.826;5.692;2022-07-29T03:31:50;16.70;87.70
41926;DHT22;27615;51.826;5.692;2022-07-29T03:34:16;16.60;87.80
41926;DHT22;27615;51.826;5.692;2022-07-29T03:36:41;16.60;88.10
41926;DHT22;27615;51.826;5.692;2022-07-29T03:39:09;16.60;88.30
41926;DHT22;27615;51.826;5.692;2022-07-29T03:41:36;16.60;88.50
41926;DHT22;27615;51.826;5.692;2022-07-29T03:44:06;16.60;88.60
41926;DHT22;27615;51.826;5.692;2022-07-29T03:46:33;16.50;89.00
41926;DHT22;27615;51.826;5.692;2022-07-29T03:49:03;16.50;89.20
41926;DHT22;27615;51.826;5.692;2022-07-29T03:51:30;16.50;89.50
41926;DHT22;27615;51.826;5.692;2022-07-29T03:53:56;16.50;89.90
41926;DHT22;27615;51.826;5.692;2022-07-29T03:56:23;16.40;90.20
41926;DHT22;27615;51.826;5.692;2022-07-29T03:58:53;16.40;90.40
41926;DHT22;27615;51.826;5.692;2022-07-29T04:01:20;16.30;90.50
41926;DHT22;27615;51.826;5.692;2022-07-29T04:03:46;16.30;90.80
41926;DHT22;27615;51.826;5.692;2022-07-29T04:06:12;16.20;91.10
41926;DHT22;27615;51.826;5.692;2022-07-29T04:08:38;16.20;91.30
41926;DHT22;27615;51.826;5.692;2022-07-29T04:11:05;16.20;91.60
41926;DHT22;27615;51.826;5.692;2022-07-29T04:13:31;16.20;91.70
41926;DHT22;27615;51.826;5.692;2022-07-29T04:15:57;16.20;91.90
41926;DHT22;27615;51.826;5.692;2022-07-29T04:18:23;16.10;91.90
41926;DHT22;27615;51.826;5.692;2022-07-29T04:20:49;16.10;92.00
41926;DHT22;27615;51.826;5.692;2022-07-29T04:23:15;16.10;92.00
41926;DHT22;27615;51.826;5.692;2022-07-29T04:25:41;16.10;92.00
41926;DHT22;27615;51.826;5.692;2022-07-29T04:28:07;16.10;92.00
41926;DHT22;27615;51.826;5.692;2022-07-29T04:30:33;16.10;92.00
41926;DHT22;27615;51.826;5.692;2022-07-29T04:33:01;16.10;92.00
41926;DHT22;27615;51.826;5.692;2022-07-29T04:35:28;16.10;92.00
41926;DHT22;27615;51.826;5.692;2022-07-29T04:37:54;16.10;92.00
41926;DHT22;27615;51.826;5.692;2022-07-29T04:40:23;16.10;92.00
41926;DHT22;27615;51.826;5.692;2022-07-29T04:43:00;16.20;92.00
41926;DHT22;27615;51.826;5.692;2022-07-29T04:45:26;16.20;91.90
41926;DHT22;27615;51.826;5.692;2022-07-29T04:47:52;16.20;91.90
41926;DHT22;27615;51.826;5.692;2022-07-29T04:50:17;16.20;91.90
41926;DHT22;27615;51.826;5.692;2022-07-29T04:52:43;16.20;91.90
41926;DHT22;27615;51.826;5.692;2022-07-29T04:55:09;16.20;91.90
41926;DHT22;27615;51.826;5.692;2022-07-29T04:57:35;16.10;92.00
41926;DHT22;27615;51.826;5.692;2022-07-29T05:00:00;16.10;92.00
41926;DHT22;27615;51.826;5.692;2022-07-29T05:02:26;16.20;92.00
41926;DHT22;27615;51.826;5.692;2022-07-29T05:04:51;16.20;92.00
41926;DHT22;27615;51.826;5.692;2022-07-29T05:07:17;16.20;92.10
41926;DHT22;27615;51.826;5.692;2022-07-29T05:09:46;16.20;92.10
41926;DHT22;27615;51.826;5.692;2022-07-29T05:12:11;16.10;92.10
41926;DHT22;27615;51.826;5.692;2022-07-29T05:14:37;16.10;92.20
41926;DHT22;27615;51.826;5.692;2022-07-29T05:17:02;16.20;92.30
41926;DHT22;27615;51.826;5.692;2022-07-29T05:19:28;16.20;92.30
41926;DHT22;27615;51.826;5.692;2022-07-29T05:21:54;16.10;92.20
41926;DHT22;27615;51.826;5.692;2022-07-29T05:24:19;16.20;92.20
41926;DHT22;27615;51.826;5.692;2022-07-29T05:26:45;16.20;92.20
41926;DHT22;27615;51.826;5.692;2022-07-29T05:29:10;16.20;92.40
41926;DHT22;27615;51.826;5.692;2022-07-29T05:31:36;16.20;92.40
41926;DHT22;27615;51.826;5.692;2022-07-29T05:34:02;16.20;92.40
41926;DHT22;27615;51.826;5.692;2022-07-29T05:36:27;16.20;92.40
41926;DHT22;27615;51.826;5.692;2022-07-29T05:38:53;16.20;92.50
41926;DHT22;27615;51.826;5.692;2022-07-29T05:41:19;16.20;92.50
41926;DHT22;27615;51.826;5.692;2022-07-29T05:43:45;16.20;92.50
41926;DHT22;27615;51.826;5.692;2022-07-29T05:46:10;16.30;92.50
41926;DHT22;27615;51.826;5.692;2022-07-29T05:48:36;16.30;92.50
41926;DHT22;27615;51.826;5.692;2022-07-29T05:51:02;16.30;92.50
41926;DHT22;27615;51.826;5.692;2022-07-29T05:53:27;16.40;92.40
41926;DHT22;27615;51.826;5.692;2022-07-29T05:55:53;16.40;92.30
41926;DHT22;27615;51.826;5.692;2022-07-29T05:58:19;16.50;92.30
41926;DHT22;27615;51.826;5.692;2022-07-29T06:00:45;16.50;92.20
41926;DHT22;27615;51.826;5.692;2022-07-29T06:03:11;16.60;92.20
41926;DHT22;27615;51.826;5.692;2022-07-29T06:05:36;16.60;92.10
41926;DHT22;27615;51.826;5.692;2022-07-29T06:08:02;16.60;92.20
41926;DHT22;27615;51.826;5.692;2022-07-29T06:10:28;16.60;92.20
41926;DHT22;27615;51.826;5.692;2022-07-29T06:12:54;16.60;92.30
41926;DHT22;27615;51.826;5.692;2022-07-29T06:15:19;16.60;92.20
41926;DHT22;27615;51.826;5.692;2022-07-29T06:17:45;16.70;92.20
41926;DHT22;27615;51.826;5.692;2022-07-29T06:20:11;16.70;92.20
41926;DHT22;27615;51.826;5.692;2022-07-29T06:22:36;16.70;92.10
41926;DHT22;27615;51.826;5.692;2022-07-29T06:25:02;16.70;92.00
41926;DHT22;27615;51.826;5.692;2022-07-29T06:27:29;16.80;91.90
41926;DHT22;27615;51.826;5.692;2022-07-29T06:29:56;16.80;91.90
41926;DHT22;27615;51.826;5.692;2022-07-29T06:32:21;16.80;91.80
41926;DHT22;27615;51.826;5.692;2022-07-29T06:34:47;16.90;91.80
41926;DHT22;27615;51.826;5.692;2022-07-29T06:37:13;17.00;91.70
41926;DHT22;27615;51.826;5.692;2022-07-29T06:39:39;17.00;91.50
41926;DHT22;27615;51.826;5.692;2022-07-29T06:42:05;17.10;91.40
41926;DHT22;27615;51.826;5.692;2022-07-29T06:44:31;17.10;91.40
41926;DHT22;27615;51.826;5.692;2022-07-29T06:46:59;17.20;91.40
41926;DHT22;27615;51.826;5.692;2022-07-29T06:49:25;17.20;91.20
41926;DHT22;27615;51.826;5.692;2022-07-29T06:51:52;17.30;91.20
41926;DHT22;27615;51.826;5.692;2022-07-29T06:54:17;17.40;91.20
41926;DHT22;27615;51.826;5.692;2022-07-29T06:56:43;17.40;91.10
41926;DHT22;27615;51.826;5.692;2022-07-29T06:59:10;17.40;91.00
41926;DHT22;27615;51.826;5.692;2022-07-29T07:01:37;17.50;91.00
41926;DHT22;27615;51.826;5.692;2022-07-29T07:04:03;17.60;90.90
41926;DHT22;27615;51.826;5.692;2022-07-29T07:06:29;17.60;90.80
41926;DHT22;27615;51.826;5.692;2022-07-29T07:08:54;17.60;90.80
41926;DHT22;27615;51.826;5.692;2022-07-29T07:11:20;17.70;90.70
41926;DHT22;27615;51.826;5.692;2022-07-29T07:13:45;17.70;90.60
41926;DHT22;27615;51.826;5.692;2022-07-29T07:16:11;17.80;90.90
41926;DHT22;27615;51.826;5.692;2022-07-29T07:18:37;17.80;90.60
41926;DHT22;27615;51.826;5.692;2022-07-29T07:21:03;17.90;90.60
41926;DHT22;27615;51.826;5.692;2022-07-29T07:23:30;17.90;90.50
41926;DHT22;27615;51.826;5.692;2022-07-29T07:25:55;18.00;90.70
41926;DHT22;27615;51.826;5.692;2022-07-29T07:28:21;18.10;90.30
41926;DHT22;27615;51.826;5.692;2022-07-29T07:30:46;18.20;90.10
41926;DHT22;27615;51.826;5.692;2022-07-29T07:33:12;18.30;89.90
41926;DHT22;27615;51.826;5.692;2022-07-29T07:35:38;18.40;89.50
41926;DHT22;27615;51.826;5.692;2022-07-29T07:38:04;18.40;89.10
41926;DHT22;27615;51.826;5.692;2022-07-29T07:40:31;18.40;89.00
41926;DHT22;27615;51.826;5.692;2022-07-29T07:42:57;18.50;88.80
41926;DHT22;27615;51.826;5.692;2022-07-29T07:45:23;18.50;88.60
41926;DHT22;27615;51.826;5.692;2022-07-29T07:47:49;18.50;88.40
41926;DHT22;27615;51.826;5.692;2022-07-29T07:50:14;18.60;88.40
41926;DHT22;27615;51.826;5.692;2022-07-29T07:52:51;18.60;88.20
41926;DHT22;27615;51.826;5.692;2022-07-29T07:55:18;18.60;88.00
41926;DHT22;27615;51.826;5.692;2022-07-29T07:57:45;18.60;87.80
41926;DHT22;27615;51.826;5.692;2022-07-29T08:00:12;18.70;87.50
41926;DHT22;27615;51.826;5.692;2022-07-29T08:02:38;18.70;87.30
41926;DHT22;27615;51.826;5.692;2022-07-29T08:05:05;18.80;87.30
41926;DHT22;27615;51.826;5.692;2022-07-29T08:07:31;18.80;87.20
41926;DHT22;27615;51.826;5.692;2022-07-29T08:09:56;18.90;87.20
41926;DHT22;27615;51.826;5.692;2022-07-29T08:12:22;19.00;87.10
41926;DHT22;27615;51.826;5.692;2022-07-29T08:14:47;19.10;87.00
41926;DHT22;27615;51.826;5.692;2022-07-29T08:17:13;19.20;86.80
41926;DHT22;27615;51.826;5.692;2022-07-29T08:19:38;19.20;86.50
41926;DHT22;27615;51.826;5.692;2022-07-29T08:22:05;19.30;86.30
41926;DHT22;27615;51.826;5.692;2022-07-29T08:24:30;19.40;86.20
41926;DHT22;27615;51.826;5.692;2022-07-29T08:27:08;19.40;85.80
41926;DHT22;27615;51.826;5.692;2022-07-29T08:29:34;19.50;85.70
41926;DHT22;27615;51.826;5.692;2022-07-29T08:32:00;19.60;85.30
41926;DHT22;27615;51.826;5.692;2022-07-29T08:34:26;19.60;85.00
41926;DHT22;27615;51.826;5.692;2022-07-29T08:36:51;19.70;85.00
41926;DHT22;27615;51.826;5.692;2022-07-29T08:39:17;19.70;84.90
41926;DHT22;27615;51.826;5.692;2022-07-29T08:41:42;19.70;84.80
41926;DHT22;27615;51.826;5.692;2022-07-29T08:44:08;19.80;84.90
41926;DHT22;27615;51.826;5.692;2022-07-29T08:46:37;19.90;84.90
41926;DHT22;27615;51.826;5.692;2022-07-29T08:49:04;19.90;84.60
41926;DHT22;27615;51.826;5.692;2022-07-29T08:51:30;20.10;84.40
41926;DHT22;27615;51.826;5.692;2022-07-29T08:53:58;20.20;84.10
41926;DHT22;27615;51.826;5.692;2022-07-29T08:56:24;20.20;83.90
41926;DHT22;27615;51.826;5.692;2022-07-29T08:58:50;20.30;83.70
41926;DHT22;27615;51.826;5.692;2022-07-29T09:01:20;20.40;83.70
41926;DHT22;27615;51.826;5.692;2022-07-29T09:03:46;20.50;83.60
41926;DHT22;27615;51.826;5.692;2022-07-29T09:06:17;20.60;83.50
41926;DHT22;27615;51.826;5.692;2022-07-29T09:08:44;20.60;83.20
41926;DHT22;27615;51.826;5.692;2022-07-29T09:11:11;20.60;83.10
41926;DHT22;27615;51.826;5.692;2022-07-29T09:13:37;20.60;83.20
41926;DHT22;27615;51.826;5.692;2022-07-29T09:16:03;20.60;83.10
41926;DHT22;27615;51.826;5.692;2022-07-29T09:21:00;20.80;83.00
41926;DHT22;27615;51.826;5.692;2022-07-29T09:24:00;20.80;83.00
41926;DHT22;27615;51.826;5.692;2022-07-29T09:26:30;20.90;83.10
41926;DHT22;27615;51.826;5.692;2022-07-29T09:28:57;20.90;83.00
41926;DHT22;27615;51.826;5.692;2022-07-29T09:31:33;21.00;82.80
41926;DHT22;27615;51.826;5.692;2022-07-29T09:34:02;21.10;82.50
41926;DHT22;27615;51.826;5.692;2022-07-29T09:36:28;21.10;82.60
41926;DHT22;27615;51.826;5.692;2022-07-29T09:38:59;21.20;82.40
41926;DHT22;27615;51.826;5.692;2022-07-29T09:41:25;21.20;82.20
41926;DHT22;27615;51.826;5.692;2022-07-29T09:43:59;21.30;82.20
41926;DHT22;27615;51.826;5.692;2022-07-29T09:46:35;21.40;82.10
41926;DHT22;27615;51.826;5.692;2022-07-29T09:49:13;21.50;81.90
41926;DHT22;27615;51.826;5.692;2022-07-29T09:51:40;21.50;82.30
41926;DHT22;27615;51.826;5.692;2022-07-29T09:54:26;21.60;81.40
41926;DHT22;27615;51.826;5.692;2022-07-29T09:56:54;21.70;80.70
41926;DHT22;27615;51.826;5.692;2022-07-29T09:59:20;21.80;80.60
41926;DHT22;27615;51.826;5.692;2022-07-29T10:01:52;21.90;80.40
41926;DHT22;27615;51.826;5.692;2022-07-29T10:04:18;21.90;80.10
41926;DHT22;27615;51.826;5.692;2022-07-29T10:07:01;22.00;79.80
41926;DHT22;27615;51.826;5.692;2022-07-29T10:09:28;22.20;79.50
41926;DHT22;27615;51.826;5.692;2022-07-29T10:12:04;22.30;79.40
41926;DHT22;27615;51.826;5.692;2022-07-29T10:14:34;22.50;78.90
41926;DHT22;27615;51.826;5.692;2022-07-29T10:17:00;22.60;78.50
41926;DHT22;27615;51.826;5.692;2022-07-29T10:19:30;22.80;77.80
41926;DHT22;27615;51.826;5.692;2022-07-29T10:21:57;22.80;77.30
41926;DHT22;27615;51.826;5.692;2022-07-29T10:24:28;22.90;76.90
41926;DHT22;27615;51.826;5.692;2022-07-29T10:26:56;23.00;76.10
41926;DHT22;27615;51.826;5.692;2022-07-29T10:29:22;23.10;76.00
41926;DHT22;27615;51.826;5.692;2022-07-29T10:35:01;23.40;75.90
41926;DHT22;27615;51.826;5.692;2022-07-29T10:43:45;23.70;73.40
41926;DHT22;27615;51.826;5.692;2022-07-29T10:46:12;23.80;73.50
41926;DHT22;27615;51.826;5.692;2022-07-29T10:55:02;24.20;71.20
41926;DHT22;27615;51.826;5.692;2022-07-29T11:00:28;24.30;70.30
41926;DHT22;27615;51.826;5.692;2022-07-29T11:05:06;24.50;68.50
41926;DHT22;27615;51.826;5.692;2022-07-29T11:07:34;24.70;67.20
41926;DHT22;27615;51.826;5.692;2022-07-29T11:15:07;25.10;65.00
41926;DHT22;27615;51.826;5.692;2022-07-29T11:23:29;25.80;63.80
41926;DHT22;27615;51.826;5.692;2022-07-29T11:29:23;26.30;61.60
41926;DHT22;27615;51.826;5.692;2022-07-29T11:31:51;26.50;60.80
41926;DHT22;27615;51.826;5.692;2022-07-29T11:34:30;26.60;60.00
41926;DHT22;27615;51.826;5.692;2022-07-29T11:39:40;26.90;59.70
41926;DHT22;27615;51.826;5.692;2022-07-29T11:47:24;27.40;59.00
41926;DHT22;27615;51.826;5.692;2022-07-29T11:49:52;27.40;58.20
41926;DHT22;27615;51.826;5.692;2022-07-29T11:52:18;27.40;57.90
41926;DHT22;27615;51.826;5.692;2022-07-29T11:54:44;27.40;57.70
41926;DHT22;27615;51.826;5.692;2022-07-29T11:57:12;27.50;57.80
41926;DHT22;27615;51.826;5.692;2022-07-29T11:59:42;27.70;57.70
41926;DHT22;27615;51.826;5.692;2022-07-29T12:02:09;27.80;56.20
41926;DHT22;27615;51.826;5.692;2022-07-29T12:04:55;27.90;56.10
41926;DHT22;27615;51.826;5.692;2022-07-29T12:07:32;28.10;56.40
41926;DHT22;27615;51.826;5.692;2022-07-29T12:09:58;28.10;55.90
41926;DHT22;27615;51.826;5.692;2022-07-29T12:12:24;28.20;56.00
41926;DHT22;27615;51.826;5.692;2022-07-29T12:14:50;28.40;55.70
41926;DHT22;27615;51.826;5.692;2022-07-29T12:17:34;28.60;55.50
41926;DHT22;27615;51.826;5.692;2022-07-29T12:20:04;28.80;55.30
41926;DHT22;27615;51.826;5.692;2022-07-29T12:22:32;28.90;54.80
41926;DHT22;27615;51.826;5.692;2022-07-29T12:25:03;28.90;54.70
41926;DHT22;27615;51.826;5.692;2022-07-29T12:27:30;29.10;54.40
41926;DHT22;27615;51.826;5.692;2022-07-29T12:30:00;29.30;53.50
41926;DHT22;27615;51.826;5.692;2022-07-29T12:32:36;29.50;53.10
41926;DHT22;27615;51.826;5.692;2022-07-29T12:35:04;29.70;52.70
41926;DHT22;27615;51.826;5.692;2022-07-29T12:37:32;29.80;52.50
41926;DHT22;27615;51.826;5.692;2022-07-29T12:39:59;30.00;52.40
41926;DHT22;27615;51.826;5.692;2022-07-29T12:42:25;30.10;51.80
41926;DHT22;27615;51.826;5.692;2022-07-29T12:44:51;30.20;51.80
41926;DHT22;27615;51.826;5.692;2022-07-29T12:47:18;30.30;51.20
41926;DHT22;27615;51.826;5.692;2022-07-29T12:49:44;30.40;49.60
41926;DHT22;27615;51.826;5.692;2022-07-29T12:52:30;30.40;48.80
41926;DHT22;27615;51.826;5.692;2022-07-29T12:54:55;30.20;48.90
41926;DHT22;27615;51.826;5.692;2022-07-29T12:57:21;30.20;49.40
41926;DHT22;27615;51.826;5.692;2022-07-29T13:00:07;30.50;49.20
41926;DHT22;27615;51.826;5.692;2022-07-29T13:02:34;30.70;48.20
41926;DHT22;27615;51.826;5.692;2022-07-29T13:05:00;30.50;48.10
41926;DHT22;27615;51.826;5.692;2022-07-29T13:07:28;30.80;48.40
41926;DHT22;27615;51.826;5.692;2022-07-29T13:10:17;31.00;47.70
41926;DHT22;27615;51.826;5.692;2022-07-29T13:13:08;31.10;47.00
41926;DHT22;27615;51.826;5.692;2022-07-29T13:15:43;31.30;46.20
41926;DHT22;27615;51.826;5.692;2022-07-29T13:18:32;31.50;46.10
41926;DHT22;27615;51.826;5.692;2022-07-29T13:21:11;31.70;46.10
41926;DHT22;27615;51.826;5.692;2022-07-29T13:23:37;31.90;45.90
41926;DHT22;27615;51.826;5.692;2022-07-29T13:26:10;32.00;46.10
41926;DHT22;27615;51.826;5.692;2022-07-29T13:28:41;32.10;45.80
41926;DHT22;27615;51.826;5.692;2022-07-29T13:31:06;32.10;45.20
41926;DHT22;27615;51.826;5.692;2022-07-29T13:33:32;32.20;45.30
41926;DHT22;27615;51.826;5.692;2022-07-29T13:35:58;32.40;45.50
41926;DHT22;27615;51.826;5.692;2022-07-29T13:38:23;32.40;44.20
41926;DHT22;27615;51.826;5.692;2022-07-29T13:40:49;32.30;44.20
41926;DHT22;27615;51.826;5.692;2022-07-29T13:43:14;32.50;44.40
41926;DHT22;27615;51.826;5.692;2022-07-29T13:45:40;32.60;43.70
41926;DHT22;27615;51.826;5.692;2022-07-29T13:48:06;32.60;43.90
41926;DHT22;27615;51.826;5.692;2022-07-29T13:50:32;32.70;44.20
41926;DHT22;27615;51.826;5.692;2022-07-29T13:52:58;32.70;44.40
41926;DHT22;27615;51.826;5.692;2022-07-29T13:55:24;32.80;44.30
41926;DHT22;27615;51.826;5.692;2022-07-29T13:57:49;32.80;43.80
41926;DHT22;27615;51.826;5.692;2022-07-29T14:00:18;32.90;44.00
41926;DHT22;27615;51.826;5.692;2022-07-29T14:02:44;33.10;44.30
41926;DHT22;27615;51.826;5.692;2022-07-29T14:05:10;33.20;44.10
41926;DHT22;27615;51.826;5.692;2022-07-29T14:07:37;33.30;43.90
41926;DHT22;27615;51.826;5.692;2022-07-29T14:10:04;33.30;43.80
41926;DHT22;27615;51.826;5.692;2022-07-29T14:12:30;33.30;44.00
41926;DHT22;27615;51.826;5.692;2022-07-29T14:14:55;33.40;44.00
41926;DHT22;27615;51.826;5.692;2022-07-29T14:17:21;33.50;43.40
41926;DHT22;27615;51.826;5.692;2022-07-29T14:19:47;33.40;43.10
41926;DHT22;27615;51.826;5.692;2022-07-29T14:22:12;33.50;43.40
41926;DHT22;27615;51.826;5.692;2022-07-29T14:24:38;33.70;43.30
41926;DHT22;27615;51.826;5.692;2022-07-29T14:27:06;33.80;43.20
41926;DHT22;27615;51.826;5.692;2022-07-29T14:29:32;33.70;43.10
41926;DHT22;27615;51.826;5.692;2022-07-29T14:31:58;33.70;43.40
41926;DHT22;27615;51.826;5.692;2022-07-29T14:34:23;34.00;43.60
41926;DHT22;27615;51.826;5.692;2022-07-29T14:36:49;34.10;43.40
41926;DHT22;27615;51.826;5.692;2022-07-29T14:39:22;34.10;43.40
41926;DHT22;27615;51.826;5.692;2022-07-29T14:41:50;34.10;43.20
41926;DHT22;27615;51.826;5.692;2022-07-29T14:44:17;34.00;43.20
41926;DHT22;27615;51.826;5.692;2022-07-29T14:46:43;34.00;43.30
41926;DHT22;27615;51.826;5.692;2022-07-29T14:49:08;34.10;43.10
41926;DHT22;27615;51.826;5.692;2022-07-29T14:51:57;34.10;43.00
41926;DHT22;27615;51.826;5.692;2022-07-29T14:54:22;34.10;42.70
41926;DHT22;27615;51.826;5.692;2022-07-29T14:56:48;34.00;42.60
41926;DHT22;27615;51.826;5.692;2022-07-29T14:59:24;33.90;42.30
41926;DHT22;27615;51.826;5.692;2022-07-29T15:01:50;33.90;42.50
41926;DHT22;27615;51.826;5.692;2022-07-29T15:04:15;34.00;42.60
41926;DHT22;27615;51.826;5.692;2022-07-29T15:06:41;34.00;42.60
41926;DHT22;27615;51.826;5.692;2022-07-29T15:09:06;34.00;42.70
41926;DHT22;27615;51.826;5.692;2022-07-29T15:11:47;33.90;42.70
41926;DHT22;27615;51.826;5.692;2022-07-29T15:14:35;33.70;42.90
41926;DHT22;27615;51.826;5.692;2022-07-29T15:20:00;33.70;43.20
41926;DHT22;27615;51.826;5.692;2022-07-29T15:22:26;33.80;43.30
41926;DHT22;27615;51.826;5.692;2022-07-29T15:24:51;33.90;43.20
41926;DHT22;27615;51.826;5.692;2022-07-29T15:27:17;34.00;43.00
41926;DHT22;27615;51.826;5.692;2022-07-29T15:29:43;34.10;42.60
41926;DHT22;27615;51.826;5.692;2022-07-29T15:32:09;34.10;42.50
41926;DHT22;27615;51.826;5.692;2022-07-29T15:34:35;34.20;42.70
41926;DHT22;27615;51.826;5.692;2022-07-29T15:37:01;34.30;42.60
41926;DHT22;27615;51.826;5.692;2022-07-29T15:39:26;34.40;42.70
41926;DHT22;27615;51.826;5.692;2022-07-29T15:41:52;34.60;42.50
41926;DHT22;27615;51.826;5.692;2022-07-29T15:44:18;34.70;42.20
41926;DHT22;27615;51.826;5.692;2022-07-29T15:46:44;34.70;41.70
41926;DHT22;27615;51.826;5.692;2022-07-29T15:49:35;34.70;41.60
41926;DHT22;27615;51.826;5.692;2022-07-29T15:52:05;34.80;41.50
41926;DHT22;27615;51.826;5.692;2022-07-29T15:54:39;34.80;41.30
41926;DHT22;27615;51.826;5.692;2022-07-29T15:57:23;34.80;41.30
41926;DHT22;27615;51.826;5.692;2022-07-29T16:00:08;34.70;41.50
41926;DHT22;27615;51.826;5.692;2022-07-29T16:02:33;34.40;41.70
41926;DHT22;27615;51.826;5.692;2022-07-29T16:04:59;34.30;41.70
41926;DHT22;27615;51.826;5.692;2022-07-29T16:07:25;34.40;41.60
41926;DHT22;27615;51.826;5.692;2022-07-29T16:09:50;34.30;41.60
41926;DHT22;27615;51.826;5.692;2022-07-29T16:12:16;34.40;41.40
41926;DHT22;27615;51.826;5.692;2022-07-29T16:14:42;34.50;41.40
41926;DHT22;27615;51.826;5.692;2022-07-29T16:17:09;34.50;41.30
41926;DHT22;27615;51.826;5.692;2022-07-29T16:19:34;34.50;41.70
41926;DHT22;27615;51.826;5.692;2022-07-29T16:22:00;34.40;41.50
41926;DHT22;27615;51.826;5.692;2022-07-29T16:24:25;34.20;41.40
41926;DHT22;27615;51.826;5.692;2022-07-29T16:26:54;34.10;41.40
41926;DHT22;27615;51.826;5.692;2022-07-29T16:29:20;33.90;41.60
41926;DHT22;27615;51.826;5.692;2022-07-29T16:31:45;33.70;41.80
41926;DHT22;27615;51.826;5.692;2022-07-29T16:34:11;33.70;42.00
41926;DHT22;27615;51.826;5.692;2022-07-29T16:36:36;33.70;42.20
41926;DHT22;27615;51.826;5.692;2022-07-29T16:39:02;33.80;42.20